Time;durP1;ratioP1;P1;durP2;ratioP2;P2;SDS_P1;SDS_P2;PMS_P1;PMS_P2;Temp;Humidity;BMP_temperature;BMP_pressure;BME280_temperature;BME280_humidity;BME280_pressure;Samples;Min_cycle;Max_cycle;Signal;HPM_P1;HPM_P2
2021/08/24 00:00:35;;;;;;;8.45;4.70;;;16.10;99.90;;;16.02;95.58;102112.38;4206264;28;20557;-67
2021/08/24 00:02:36;;;;;;;8.30;5.10;;;16.10;99.90;;;15.97;96.85;102112.00;4201543;28;20074;-67
2021/08/24 00:04:37;;;;;;;11.00;5.03;;;16.00;99.90;;;16.02;96.33;102107.03;4175078;28;20480;-67
2021/08/24 00:06:38;;;;;;;8.93;4.85;;;16.00;99.90;;;15.86;96.71;102098.97;4186337;28;20032;-67
2021/08/24 00:08:40;;;;;;;8.20;3.60;;;16.00;99.90;;;15.81;97.25;102106.59;4186412;28;20025;-67
2021/08/24 00:10:55;;;;;;;7.13;4.88;;;16.00;99.90;;;15.80;97.44;102094.28;4186203;28;20025;-67
2021/08/24 00:12:58;;;;;;;6.63;4.00;;;16.00;99.90;;;15.78;98.26;102109.56;4186418;28;20033;-67
2021/08/24 00:14:59;;;;;;;8.82;5.35;;;16.00;99.90;;;15.85;97.33;102106.13;4186566;28;20024;-67
2021/08/24 00:17:00;;;;;;;9.45;4.97;;;15.90;99.90;;;15.83;97.63;102107.28;4186188;28;20111;-67
2021/08/24 00:19:01;;;;;;;8.50;4.50;;;15.90;99.90;;;15.74;98.48;102094.91;4186391;28;20111;-67
2021/08/24 00:21:04;;;;;;;10.77;5.22;;;15.90;99.90;;;15.68;98.92;102095.53;4186308;28;20504;-67
2021/08/24 00:23:10;;;;;;;8.38;4.63;;;15.80;99.90;;;15.65;97.75;102093.19;4186252;28;20064;-67
2021/08/24 00:25:13;;;;;;;8.63;5.72;;;15.80;99.90;;;15.75;97.90;102099.22;4186112;28;20037;-67
2021/08/24 00:27:14;;;;;;;6.57;4.88;;;15.80;99.90;;;15.70;98.10;102094.38;4186271;28;20017;-67
2021/08/24 00:29:15;;;;;;;11.90;4.85;;;15.80;99.90;;;15.65;98.37;102091.34;4186225;28;20036;-67
2021/08/24 00:31:16;;;;;;;9.52;4.35;;;15.70;99.90;;;15.70;98.28;102094.38;4185929;28;20036;-67
2021/08/24 00:33:19;;;;;;;5.95;4.55;;;15.70;99.90;;;15.72;97.87;102084.41;4186017;28;20021;-67
2021/08/24 00:35:20;;;;;;;6.53;3.85;;;15.70;99.90;;;15.58;98.80;102084.16;4186067;28;20033;-67
2021/08/24 00:37:21;;;;;;;7.32;4.05;;;15.70;99.90;;;15.53;99.15;102091.78;4186002;28;20061;-67
2021/08/24 00:39:22;;;;;;;7.47;4.40;;;15.70;99.90;;;15.46;99.68;102087.03;4185914;28;20113;-67
2021/08/24 00:41:25;;;;;;;5.80;4.07;;;15.60;99.90;;;15.47;99.52;102093.22;4185848;28;20032;-67
2021/08/24 00:43:29;;;;;;;7.85;4.78;;;15.60;99.90;;;15.53;98.71;102086.44;4186153;28;20060;-67
2021/08/24 00:45:42;;;;;;;8.85;4.75;;;15.60;99.90;;;15.49;98.70;102067.31;4185877;28;20037;-67
2021/08/24 00:47:47;;;;;;;9.13;5.38;;;15.60;99.90;;;15.67;98.03;102084.06;4184348;28;20028;-67
2021/08/24 00:49:49;;;;;;;6.10;5.35;;;15.60;99.90;;;15.71;98.09;102080.06;4180742;28;20033;-67
2021/08/24 00:52:12;;;;;;;7.45;4.63;;;15.60;99.90;;;15.77;97.20;102078.63;4208048;28;20042;-67
2021/08/24 00:54:22;;;;;;;7.88;4.97;;;15.70;99.90;;;15.70;97.80;102081.09;4184531;28;20068;-67
2021/08/24 00:56:24;;;;;;;6.93;4.82;;;15.70;99.90;;;15.67;98.79;102081.41;4185436;28;20052;-67
2021/08/24 00:58:24;;;;;;;9.40;6.00;;;15.70;99.90;;;15.62;98.17;102082.84;4184262;28;20087;-67
2021/08/24 01:00:29;;;;;;;6.97;5.22;;;15.70;99.90;;;15.55;98.48;102079.97;4185601;28;20025;-67
2021/08/24 01:02:30;;;;;;;9.77;5.78;;;15.70;99.90;;;15.55;99.02;102076.47;4185186;28;20032;-67
2021/08/24 01:04:31;;;;;;;11.30;5.10;;;15.60;99.90;;;15.46;99.96;102076.41;4185622;28;20426;-67
2021/08/24 01:06:44;;;;;;;10.93;5.45;;;15.60;99.90;;;15.33;100.00;102073.31;4185534;28;20056;-67
2021/08/24 01:08:54;;;;;;;9.70;6.30;;;15.60;99.90;;;15.42;100.00;102072.38;4184447;28;20033;-68
2021/08/24 01:11:32;;;;;;;11.48;5.97;;;15.50;99.90;;;15.41;99.76;102067.22;4185664;28;20103;-67
2021/08/24 01:13:43;;;;;;;7.82;4.88;;;15.50;99.90;;;15.29;100.00;102060.47;4184384;28;20476;-67
2021/08/24 01:15:55;;;;;;;6.57;4.47;;;15.40;99.90;;;15.16;100.00;102052.06;4213630;28;20418;-68
2021/08/24 01:18:26;;;;;;;11.65;5.75;;;15.40;99.90;;;15.46;99.49;102071.09;4177555;28;20112;-67
2021/08/24 01:20:56;;;;;;;10.38;5.93;;;15.50;99.90;;;15.43;99.86;102071.41;4184152;28;20032;-67
2021/08/24 01:23:34;;;;;;;12.35;5.95;;;15.50;99.90;;;15.36;100.00;102066.84;4182124;28;20045;-67
2021/08/24 01:26:19;;;;;;;10.18;5.40;;;15.50;99.90;;;15.30;100.00;102068.28;4185507;28;20480;-67
2021/08/24 01:28:38;;;;;;;7.63;5.28;;;15.50;99.90;;;15.31;100.00;102069.13;4163928;28;20037;-67
2021/08/24 01:30:58;;;;;;;8.38;5.80;;;15.40;99.90;;;15.28;100.00;102059.66;4185275;28;20087;-67
2021/08/24 01:33:10;;;;;;;8.45;4.63;;;15.50;99.90;;;15.30;100.00;102070.09;4185266;28;20055;-67
2021/08/24 01:35:49;;;;;;;9.38;6.38;;;15.40;99.90;;;15.25;100.00;102062.63;4185334;28;20029;-67
2021/08/24 01:38:14;;;;;;;9.75;5.68;;;15.40;99.90;;;15.23;100.00;102069.06;4185173;28;20052;-67
2021/08/24 01:40:22;;;;;;;7.68;5.30;;;15.40;99.90;;;15.26;100.00;102061.59;4167375;28;20029;-67
2021/08/24 01:42:30;;;;;;;10.27;5.78;;;15.40;99.90;;;15.30;100.00;102054.16;4184071;28;20025;-67
2021/08/24 01:44:39;;;;;;;11.20;5.38;;;15.40;99.90;;;15.23;100.00;102055.78;4184077;28;20035;-68
2021/08/24 01:46:57;;;;;;;10.27;6.07;;;15.30;99.90;;;15.32;100.00;102066.31;4167423;28;20087;-67
2021/08/24 01:49:03;;;;;;;14.18;7.25;;;15.40;99.90;;;15.23;100.00;102061.91;4185076;28;20039;-67
2021/08/24 01:51:21;;;;;;;6.40;4.50;;;15.40;99.90;;;15.15;100.00;102061.00;4170384;28;20021;-67
2021/08/24 01:53:35;;;;;;;10.48;6.13;;;15.30;99.90;;;15.14;100.00;102070.81;4183963;28;20040;-67
2021/08/24 01:55:44;;;;;;;9.60;6.13;;;15.30;99.90;;;15.30;99.64;102055.00;4183744;28;20028;-67
2021/08/24 01:57:59;;;;;;;10.65;6.70;;;15.30;99.90;;;15.26;100.00;102053.63;4183733;28;20126;-67
2021/08/24 02:00:04;;;;;;;;;;;15.30;99.90;;;15.16;100.00;102052.91;4209691;28;20031;-67
2021/08/24 02:02:15;;;;;;;7.20;4.90;;;15.30;99.90;;;15.16;100.00;102057.38;4178494;28;19959;-67
2021/08/24 02:04:34;;;;;;;8.20;5.03;;;15.30;99.90;;;15.10;100.00;102061.50;4188332;28;20033;-67
2021/08/24 02:06:53;;;;;;;11.45;5.63;;;15.30;99.90;;;15.37;99.28;102068.50;4188384;28;20468;-67
2021/08/24 02:09:00;;;;;;;11.88;6.25;;;15.30;99.90;;;15.40;99.69;102070.88;4187261;28;20032;-67
2021/08/24 02:11:04;;;;;;;8.43;6.18;;;15.40;99.90;;;15.29;100.00;102074.59;4187294;28;20535;-67
2021/08/24 02:13:06;;;;;;;10.00;5.95;;;15.40;99.90;;;15.26;100.00;102066.91;4188236;28;20075;-67
2021/08/24 02:15:08;;;;;;;9.55;5.22;;;15.40;99.90;;;15.26;100.00;102074.09;4187174;28;20029;-67
2021/08/24 02:17:13;;;;;;;5.90;4.78;;;15.30;99.90;;;15.13;100.00;102071.81;4188128;28;20025;-67
2021/08/24 02:19:27;;;;;;;10.82;6.40;;;15.30;99.90;;;15.03;100.00;102070.22;4188132;28;20035;-67
2021/08/24 02:21:33;;;;;;;14.18;6.43;;;15.20;99.90;;;15.02;100.00;102069.41;4187087;28;20499;-67
2021/08/24 02:23:36;;;;;;;11.55;6.15;;;15.20;99.90;;;15.01;100.00;102066.88;4186909;28;20052;-67
2021/08/24 02:25:42;;;;;;;10.00;6.07;;;15.20;99.90;;;15.01;100.00;102069.53;4187001;28;20029;-67
2021/08/24 02:27:58;;;;;;;9.43;6.45;;;15.20;99.90;;;15.12;100.00;102066.63;4188082;28;20033;-67
2021/08/24 02:29:59;;;;;;;9.55;5.18;;;15.20;99.90;;;15.06;100.00;102060.13;4186868;28;20029;-67
2021/08/24 02:32:19;;;;;;;13.18;6.53;;;15.20;99.90;;;15.10;100.00;102072.13;4186675;28;20051;-67
2021/08/24 02:34:36;;;;;;;10.82;6.45;;;15.20;99.90;;;15.01;100.00;102074.84;4188035;28;20036;-67
2021/08/24 02:36:44;;;;;;;12.90;6.45;;;15.20;99.90;;;14.91;100.00;102066.94;4186729;28;20107;-67
2021/08/24 02:39:05;;;;;;;14.70;7.30;;;15.10;99.90;;;14.95;100.00;102065.66;4186783;28;20060;-68
2021/08/24 02:41:55;;;;;;;9.45;6.35;;;15.10;99.90;;;14.99;100.00;102066.22;4186894;28;20127;-67
2021/08/24 02:44:31;;;;;;;12.00;6.25;;;15.10;99.90;;;15.06;100.00;102062.78;4177614;28;20060;-67
2021/08/24 02:46:41;;;;;;;8.77;5.80;;;15.10;99.90;;;15.01;100.00;102066.88;4186411;28;20028;-67
2021/08/24 02:48:47;;;;;;;11.02;6.32;;;15.10;99.90;;;14.98;100.00;102056.56;4187837;28;20090;-68
2021/08/24 02:50:48;;;;;;;10.23;5.57;;;15.10;99.90;;;14.97;100.00;102061.03;4174419;28;20037;-67
2021/08/24 02:52:49;;;;;;;8.77;5.68;;;15.10;99.90;;;15.04;100.00;102059.44;4218525;28;20084;-67
2021/08/24 02:54:52;;;;;;;10.88;5.43;;;15.10;99.90;;;14.95;100.00;102058.53;4186594;28;20029;-67
2021/08/24 02:56:54;;;;;;;11.07;5.45;;;15.00;99.90;;;14.85;100.00;102062.25;4191103;28;20123;-67
2021/08/24 02:58:55;;;;;;;9.45;5.70;;;15.00;99.90;;;14.86;100.00;102054.13;4183604;28;20060;-67
2021/08/24 03:00:56;;;;;;;7.32;5.03;;;15.00;99.90;;;14.85;100.00;102054.28;4187360;28;20029;-67
2021/08/24 03:02:58;;;;;;;11.90;5.32;;;15.00;99.90;;;14.75;100.00;102041.09;4187613;28;20032;-67
2021/08/24 03:04:59;;;;;;;8.73;5.50;;;14.90;99.90;;;14.68;100.00;102042.66;4187144;28;20033;-67
2021/08/24 03:07:29;;;;;;;7.15;5.55;;;14.90;99.90;;;14.65;100.00;102045.63;4187332;28;20025;-67
2021/08/24 03:09:33;;;;;;;8.57;5.05;;;14.80;99.90;;;14.54;100.00;102043.19;4185984;28;20037;-67
2021/08/24 03:11:54;;;;;;;7.50;4.82;;;14.80;99.90;;;14.53;100.00;102041.50;4209577;28;20028;-67
2021/08/24 03:14:07;;;;;;;10.77;6.05;;;14.80;99.90;;;14.71;100.00;102046.84;4214076;28;20046;-67
2021/08/24 03:16:34;;;;;;;11.15;5.57;;;14.80;99.90;;;14.63;100.00;102039.63;4177297;28;20032;-67
2021/08/24 03:18:51;;;;;;;11.65;5.82;;;14.80;99.90;;;14.67;100.00;102040.16;4203103;28;20031;-67
2021/08/24 03:20:57;;;;;;;10.60;5.50;;;14.80;99.90;;;14.66;100.00;102041.16;4202248;28;20063;-67
2021/08/24 03:23:00;;;;;;;8.07;6.05;;;14.70;99.90;;;14.52;100.00;102039.00;4202070;28;20089;-68
2021/08/24 03:25:04;;;;;;;7.00;4.67;;;14.70;99.90;;;14.47;100.00;102043.94;4202445;28;20020;-67
2021/08/24 03:27:07;;;;;;;7.03;4.60;;;14.60;99.90;;;14.37;100.00;102043.97;4202265;28;20172;-67
2021/08/24 03:29:12;;;;;;;6.45;4.47;;;14.60;99.90;;;14.29;100.00;102050.00;4202618;28;20446;-67
2021/08/24 03:31:17;;;;;;;10.15;5.43;;;14.60;99.90;;;14.32;100.00;102049.75;4182234;28;20035;-67
2021/08/24 03:33:19;;;;;;;10.95;6.05;;;14.60;99.90;;;14.24;100.00;102046.97;4187339;28;20025;-68
2021/08/24 03:35:21;;;;;;;9.13;5.28;;;14.50;99.90;;;14.27;100.00;102041.38;4187066;28;20056;-67
2021/08/24 03:37:22;;;;;;;7.85;6.53;;;14.50;99.90;;;14.38;100.00;102045.66;4187055;28;20025;-67
2021/08/24 03:39:23;;;;;;;11.30;6.82;;;14.50;99.90;;;14.54;100.00;102042.34;4186922;28;20108;-68
2021/08/24 03:41:25;;;;;;;8.85;5.70;;;14.50;99.90;;;14.70;100.00;102045.16;4186771;28;20108;-67
2021/08/24 03:43:25;;;;;;;7.35;5.63;;;14.60;99.90;;;14.72;100.00;102032.59;4186944;28;20033;-67
2021/08/24 03:45:27;;;;;;;7.53;5.70;;;14.70;99.90;;;14.63;100.00;102036.16;4185664;28;20531;-67
2021/08/24 03:47:28;;;;;;;7.80;6.13;;;14.70;99.90;;;14.60;100.00;102029.31;4185185;28;20029;-67
2021/08/24 03:49:29;;;;;;;8.57;5.22;;;14.70;99.90;;;14.63;100.00;102030.84;4185338;28;20515;-67
2021/08/24 03:51:30;;;;;;;9.27;5.90;;;14.70;99.90;;;14.65;100.00;102034.16;4174785;28;20500;-67
2021/08/24 03:53:33;;;;;;;7.82;5.03;;;14.70;99.90;;;14.49;100.00;102040.13;4185522;28;20044;-67
2021/08/24 03:55:34;;;;;;;11.02;6.13;;;14.70;99.90;;;14.54;100.00;102037.03;4186650;28;20029;-67
2021/08/24 03:57:35;;;;;;;9.70;5.78;;;14.60;99.90;;;14.52;100.00;102036.34;4186503;28;20037;-67
2021/08/24 03:59:35;;;;;;;7.00;5.60;;;14.70;99.90;;;14.60;100.00;102029.31;4186714;28;20056;-67
2021/08/24 04:01:36;;;;;;;8.63;5.53;;;14.70;99.90;;;14.53;100.00;102027.41;4186184;28;20025;-67
2021/08/24 04:03:37;;;;;;;9.02;6.68;;;14.70;99.90;;;14.52;100.00;102025.72;4185347;28;20504;-67
2021/08/24 04:05:38;;;;;;;9.13;5.70;;;14.60;99.90;;;14.56;100.00;102025.28;4186738;28;20032;-67
2021/08/24 04:07:39;;;;;;;10.23;6.43;;;14.70;99.90;;;14.63;100.00;102018.38;4185403;28;20067;-67
2021/08/24 04:09:40;;;;;;;9.88;5.50;;;14.70;99.90;;;14.60;100.00;102020.50;4186581;28;20542;-67
2021/08/24 04:11:41;;;;;;;10.25;6.88;;;14.70;99.90;;;14.63;100.00;102017.56;4186436;28;20402;-67
2021/08/24 04:13:42;;;;;;;12.55;6.55;;;14.70;99.90;;;14.77;100.00;102009.88;4186484;28;20025;-67
2021/08/24 04:15:43;;;;;;;9.98;5.63;;;14.70;99.90;;;14.74;100.00;102017.31;4186553;28;20040;-67
2021/08/24 04:17:44;;;;;;;11.63;5.82;;;14.80;99.90;;;14.71;100.00;102009.66;4184798;28;20092;-67
2021/08/24 04:19:45;;;;;;;9.65;6.63;;;14.70;99.90;;;14.75;100.00;102011.03;4186225;28;20469;-67
2021/08/24 04:21:46;;;;;;;10.43;6.80;;;14.80;99.90;;;14.73;100.00;102015.63;4186161;28;20037;-67
2021/08/24 04:23:48;;;;;;;10.45;6.15;;;14.70;99.90;;;14.71;100.00;102005.19;4186151;28;20155;-67
2021/08/24 04:25:50;;;;;;;9.80;6.97;;;14.70;99.90;;;14.66;100.00;102009.28;4185501;28;20033;-67
2021/08/24 04:27:51;;;;;;;12.68;7.22;;;14.70;99.90;;;14.60;100.00;102007.22;4185866;28;20104;-67
2021/08/24 04:29:52;;;;;;;12.73;6.80;;;14.70;99.90;;;14.73;100.00;102002.34;4186097;28;20037;-67
2021/08/24 04:31:53;;;;;;;11.32;6.75;;;14.70;99.90;;;14.74;100.00;102001.38;4186076;28;20036;-67
2021/08/24 04:33:54;;;;;;;9.02;6.18;;;14.80;99.90;;;14.60;100.00;102008.06;4186115;28;20031;-67
2021/08/24 04:35:55;;;;;;;13.65;7.57;;;14.70;99.90;;;14.66;100.00;102001.31;4184853;28;20017;-67
2021/08/24 04:37:56;;;;;;;10.55;7.30;;;14.70;99.90;;;14.54;100.00;101995.41;4186002;28;20025;-67
2021/08/24 04:39:56;;;;;;;12.15;6.80;;;14.70;99.90;;;14.58;100.00;102004.72;4186048;28;20075;-67
2021/08/24 04:41:57;;;;;;;14.48;7.18;;;14.70;99.90;;;14.66;100.00;102004.81;4185993;28;20033;-67
2021/08/24 04:43:59;;;;;;;11.15;6.95;;;14.70;99.90;;;14.60;100.00;102001.91;4185949;28;20471;-67
2021/08/24 04:46:00;;;;;;;9.50;6.43;;;14.70;99.90;;;14.59;100.00;102008.22;4185671;28;20113;-67
2021/08/24 04:48:01;;;;;;;13.60;7.70;;;14.70;99.90;;;14.54;100.00;102007.84;4185583;28;20021;-67
2021/08/24 04:50:03;;;;;;;9.50;6.43;;;14.70;99.90;;;14.49;100.00;102010.09;4185707;28;20029;-67
2021/08/24 04:52:05;;;;;;;11.80;6.95;;;14.60;99.90;;;14.59;100.00;102016.19;4185720;28;20032;-67
2021/08/24 04:54:06;;;;;;;9.20;6.60;;;14.70;99.90;;;14.36;100.00;102008.66;4185663;28;20053;-67
2021/08/24 04:56:07;;;;;;;13.18;8.85;;;14.60;99.90;;;14.44;100.00;102015.03;4185299;28;20048;-67
2021/08/24 04:58:08;;;;;;;11.07;7.47;;;14.60;99.90;;;14.38;100.00;102019.94;4185734;28;20029;-67
2021/08/24 05:00:10;;;;;;;11.90;7.53;;;14.60;99.90;;;14.38;100.00;102011.16;4185564;28;20029;-67
2021/08/24 05:02:11;;;;;;;15.95;7.50;;;14.60;99.90;;;14.37;100.00;102015.63;4184318;28;20403;-67
2021/08/24 05:04:12;;;;;;;12.73;7.25;;;14.50;99.90;;;14.33;100.00;102021.38;4185431;28;20318;-67
2021/08/24 05:06:13;;;;;;;14.50;8.15;;;14.50;99.90;;;14.43;100.00;102026.63;4185555;28;20044;-67
2021/08/24 05:08:14;;;;;;;9.88;6.53;;;14.50;99.90;;;14.38;100.00;102024.41;4184237;28;20025;-67
2021/08/24 05:10:15;;;;;;;12.40;7.43;;;14.50;99.90;;;14.34;100.00;102025.69;4185504;28;20500;-67
2021/08/24 05:12:16;;;;;;;12.35;8.55;;;14.50;99.90;;;14.28;100.00;102023.59;4185389;28;20025;-67
2021/08/24 05:14:17;;;;;;;14.02;8.27;;;14.40;99.90;;;14.27;100.00;102028.09;4185545;28;20100;-67
2021/08/24 05:16:18;;;;;;;10.10;7.20;;;14.40;99.90;;;14.32;100.00;102031.16;4185255;28;20029;-67
2021/08/24 05:18:19;;;;;;;11.70;8.25;;;14.40;99.90;;;14.38;100.00;102033.22;4184110;28;20063;-67
2021/08/24 05:20:20;;;;;;;10.27;7.47;;;14.40;99.90;;;14.44;100.00;102022.97;4202081;28;20024;-67
2021/08/24 05:22:21;;;;;;;18.20;8.48;;;14.40;99.90;;;14.50;100.00;102033.00;4200807;28;20036;-67
2021/08/24 05:24:22;;;;;;;10.40;7.40;;;14.50;99.90;;;14.45;100.00;102033.47;4176917;28;20392;-67
2021/08/24 05:26:23;;;;;;;11.63;8.23;;;14.50;99.90;;;14.40;100.00;102033.91;4185176;28;20021;-67
2021/08/24 05:28:25;;;;;;;14.10;8.02;;;14.50;99.90;;;14.46;100.00;102027.16;4185038;28;20048;-67
2021/08/24 05:30:26;;;;;;;13.00;6.78;;;14.50;99.90;;;14.40;100.00;102031.25;4185513;28;20024;-67
2021/08/24 05:32:28;;;;;;;10.02;7.43;;;14.50;99.90;;;14.41;100.00;102029.44;4185022;28;20024;-67
2021/08/24 05:34:29;;;;;;;14.73;8.23;;;14.50;99.90;;;14.49;100.00;102029.50;4185314;28;20040;-67
2021/08/24 05:36:31;;;;;;;10.65;6.25;;;14.60;99.90;;;14.52;100.00;102036.34;4183833;28;20075;-67
2021/08/24 05:38:33;;;;;;;11.80;7.15;;;14.60;99.90;;;14.51;100.00;102035.53;4184910;28;20039;-67
2021/08/24 05:40:34;;;;;;;11.38;8.20;;;14.60;99.90;;;14.49;100.00;102036.63;4185158;28;20511;-67
2021/08/24 05:42:35;;;;;;;13.82;8.55;;;14.60;99.90;;;14.67;100.00;102032.19;4185063;28;20037;-67
2021/08/24 05:44:36;;;;;;;14.82;8.40;;;14.70;99.90;;;14.64;100.00;102021.84;4184921;28;20028;-67
2021/08/24 05:46:37;;;;;;;13.15;8.48;;;14.70;99.90;;;14.67;100.00;102029.53;4162655;28;20025;-67
2021/08/24 05:48:39;;;;;;;11.30;7.60;;;14.80;99.90;;;14.64;100.00;102037.78;4167426;28;20488;-67
2021/08/24 05:50:41;;;;;;;12.13;7.97;;;14.70;99.90;;;14.68;100.00;102039.16;4167306;28;20025;-67
2021/08/24 05:52:42;;;;;;;12.38;8.05;;;14.80;99.90;;;14.73;100.00;102040.38;4167290;28;20124;-67
2021/08/24 05:54:43;;;;;;;11.35;6.53;;;14.80;99.90;;;14.62;100.00;102043.28;4168656;28;20053;-67
2021/08/24 05:56:46;;;;;;;12.68;8.50;;;14.90;99.90;;;14.63;100.00;102044.09;4168157;28;20038;-67
2021/08/24 05:58:51;;;;;;;13.05;8.85;;;14.90;99.90;;;14.69;100.00;102048.81;4168673;28;20496;-67
2021/08/24 06:00:52;;;;;;;15.30;7.87;;;14.90;99.90;;;14.70;100.00;102040.69;4168156;28;20041;-67
2021/08/24 06:02:52;;;;;;;13.85;7.82;;;15.00;99.90;;;14.79;100.00;102044.25;4168621;28;20104;-67
2021/08/24 06:04:53;;;;;;;11.05;7.90;;;15.00;99.90;;;14.78;100.00;102043.41;4168681;28;20025;-67
2021/08/24 06:06:54;;;;;;;11.85;7.95;;;15.10;99.90;;;14.78;100.00;102045.25;4168354;28;20041;-67
2021/08/24 06:08:57;;;;;;;15.88;8.45;;;15.10;99.90;;;14.81;100.00;102034.31;4168439;28;20032;-67
2021/08/24 06:10:58;;;;;;;13.00;8.80;;;15.20;99.90;;;14.86;100.00;102034.69;4168372;28;20036;-67
2021/08/24 06:12:59;;;;;;;12.63;9.27;;;15.30;99.90;;;14.81;100.00;102021.84;4168113;28;20029;-67
2021/08/24 06:15:00;;;;;;;16.40;9.70;;;15.30;99.90;;;14.78;100.00;102031.97;4168260;28;20025;-67
2021/08/24 06:17:01;;;;;;;13.73;9.60;;;15.30;99.90;;;14.76;100.00;102028.63;4167939;28;20064;-67
2021/08/24 06:19:02;;;;;;;17.95;10.52;;;15.30;99.90;;;14.85;100.00;102014.41;4168328;28;20063;-67
2021/08/24 06:21:03;;;;;;;15.38;9.75;;;15.30;99.90;;;14.71;100.00;102025.59;4168201;28;20026;-67
2021/08/24 06:23:04;;;;;;;14.15;9.40;;;15.40;99.90;;;14.74;100.00;102018.16;4168192;28;20033;-67
2021/08/24 06:25:06;;;;;;;14.13;9.60;;;15.40;99.90;;;14.90;100.00;102020.94;4168236;28;20032;-67
2021/08/24 06:27:07;;;;;;;13.55;9.40;;;15.40;99.90;;;14.98;100.00;102014.03;4168115;28;20068;-67
2021/08/24 06:29:09;;;;;;;14.55;10.63;;;15.50;99.90;;;15.00;100.00;102020.03;4168317;28;20081;-67
2021/08/24 06:31:18;;;;;;;13.25;9.73;;;15.50;99.90;;;15.02;100.00;102008.28;4167953;28;20025;-67
2021/08/24 06:33:24;;;;;;;13.18;10.07;;;15.70;99.90;;;14.95;100.00;102015.19;4199023;28;20028;-67
2021/08/24 06:35:25;;;;;;;17.52;11.10;;;15.60;99.90;;;14.89;100.00;102021.09;4166829;28;20092;-67
2021/08/24 06:37:27;;;;;;;15.45;10.88;;;15.60;99.90;;;15.06;100.00;102014.09;4183004;28;20024;-67
2021/08/24 06:39:28;;;;;;;17.15;10.68;;;15.70;99.90;;;15.08;100.00;102012.97;4199997;28;20036;-67
2021/08/24 06:41:29;;;;;;;14.40;10.38;;;15.70;99.90;;;15.24;100.00;102020.22;4166936;28;20056;-67
2021/08/24 06:43:31;;;;;;;14.45;10.77;;;15.80;99.90;;;15.22;100.00;102012.41;4166841;28;20051;-67
2021/08/24 06:45:32;;;;;;;14.65;11.27;;;15.80;99.90;;;15.26;100.00;102013.75;4166774;28;20065;-67
2021/08/24 06:47:33;;;;;;;15.13;10.77;;;15.80;99.90;;;15.33;100.00;102024.59;4167717;28;20064;-67
2021/08/24 06:49:34;;;;;;;13.98;10.02;;;15.90;99.90;;;15.40;100.00;102010.53;4168743;28;20018;-67
2021/08/24 06:51:36;;;;;;;16.25;11.07;;;15.90;99.90;;;15.54;100.00;102024.28;4170110;28;20045;-67
2021/08/24 06:53:40;;;;;;;18.02;10.15;;;16.00;99.90;;;15.67;99.41;102022.03;4171190;28;20053;-67
2021/08/24 06:55:42;;;;;;;14.30;9.30;;;16.10;99.90;;;15.78;99.36;102029.72;4167084;28;20116;-67
2021/08/24 06:57:44;;;;;;;13.95;10.05;;;16.20;99.90;;;15.56;100.00;102025.78;4154763;28;20393;-67
2021/08/24 06:59:45;;;;;;;12.27;10.52;;;16.30;99.90;;;15.67;100.00;102033.50;4171674;28;20384;-67
2021/08/24 07:01:46;;;;;;;14.60;10.40;;;16.40;99.90;;;15.61;100.00;102030.66;4177780;28;20084;-67
2021/08/24 07:03:47;;;;;;;15.63;10.02;;;16.40;99.90;;;15.75;100.00;102032.72;4169655;28;20021;-67
2021/08/24 07:05:51;;;;;;;13.00;10.68;;;16.50;99.90;;;15.83;99.65;102040.75;4171091;28;20041;-67
2021/08/24 07:07:53;;;;;;;15.88;11.38;;;16.60;99.90;;;15.79;99.45;102039.41;4171627;28;20033;-67
2021/08/24 07:09:54;;;;;;;11.27;8.82;;;16.60;99.90;;;15.85;100.00;102036.94;4171536;28;20057;-67
2021/08/24 07:11:55;;;;;;;15.07;9.82;;;16.60;99.90;;;15.94;99.30;102043.13;4171565;28;20026;-68
2021/08/24 07:13:59;;;;;;;14.32;10.55;;;16.60;99.90;;;15.70;100.00;102035.03;4171191;28;20041;-66
2021/08/24 07:16:01;;;;;;;;;;;16.60;99.90;;;15.90;99.47;102045.28;4171030;28;20029;-66
2021/08/24 07:18:04;;;;;;;13.55;9.98;;;16.70;99.90;;;15.94;98.82;102032.50;4171126;28;19936;-66
2021/08/24 07:20:09;;;;;;;11.85;10.10;;;16.70;99.90;;;15.98;99.06;102044.47;4170993;28;20045;-66
2021/08/24 07:22:11;;;;;;;16.50;11.35;;;16.70;99.90;;;15.81;99.74;102043.56;4171388;28;20025;-67
2021/08/24 07:24:12;;;;;;;16.38;11.18;;;16.70;99.90;;;15.93;99.84;102052.09;4171292;28;20033;-67
2021/08/24 07:26:15;;;;;;;16.85;12.60;;;16.70;99.90;;;15.84;99.14;102045.91;4170620;28;20389;-66
2021/08/24 07:28:16;;;;;;;14.02;10.95;;;16.70;99.90;;;15.83;100.00;102054.88;4171135;28;20029;-66
2021/08/24 07:30:19;;;;;;;14.23;10.90;;;16.60;99.90;;;15.98;100.00;102055.09;4171244;28;20048;-66
2021/08/24 07:32:20;;;;;;;17.60;12.35;;;16.60;99.90;;;15.88;99.81;102039.28;4170830;28;20036;-66
2021/08/24 07:34:21;;;;;;;17.38;12.45;;;16.70;99.90;;;15.95;99.48;102047.44;4170092;28;20032;-67
2021/08/24 07:36:22;;;;;;;17.70;12.35;;;16.70;99.90;;;16.02;99.08;102059.13;4169019;28;20029;-67
2021/08/24 07:38:22;;;;;;;18.35;12.95;;;16.70;99.90;;;15.92;98.32;102051.25;4169906;28;20033;-67
2021/08/24 07:40:24;;;;;;;19.75;11.90;;;16.70;99.90;;;15.97;100.00;102059.63;4168633;28;20068;-67
2021/08/24 07:42:25;;;;;;;17.20;12.82;;;16.70;99.90;;;15.98;99.04;102055.94;4169835;28;20056;-67
2021/08/24 07:44:31;;;;;;;15.65;11.98;;;16.70;99.90;;;16.07;99.12;102059.47;4168197;28;20493;-67
2021/08/24 07:46:32;;;;;;;19.05;12.80;;;16.70;99.90;;;16.03;98.84;102060.81;4152873;28;20030;-68
2021/08/24 07:48:34;;;;;;;15.55;12.20;;;16.70;99.90;;;15.99;99.15;102056.78;4152196;28;20026;-67
2021/08/24 07:50:35;;;;;;;18.33;12.73;;;16.70;99.90;;;16.11;99.24;102068.81;4162109;28;20052;-67
2021/08/24 07:52:36;;;;;;;18.92;12.25;;;16.70;99.90;;;16.15;99.76;102069.34;4169785;28;20052;-67
2021/08/24 07:54:37;;;;;;;18.40;13.43;;;16.70;99.90;;;16.21;98.61;102069.53;4169690;28;20047;-67
2021/08/24 07:56:38;;;;;;;19.77;14.18;;;16.80;99.90;;;16.22;98.68;102062.41;4168628;28;20046;-67
2021/08/24 07:58:39;;;;;;;17.52;13.85;;;16.80;99.90;;;16.16;98.56;102068.34;4169493;28;20033;-67
2021/08/24 08:00:40;;;;;;;23.88;13.90;;;16.80;99.90;;;16.02;99.43;102067.97;4168065;28;20026;-67
2021/08/24 08:02:41;;;;;;;20.10;13.88;;;16.80;99.90;;;15.96;98.93;102065.94;4169602;28;20029;-67
2021/08/24 08:04:44;;;;;;;20.23;15.57;;;16.70;99.90;;;16.03;99.03;102068.78;4169357;28;20094;-67
2021/08/24 08:06:45;;;;;;;17.77;14.05;;;16.70;99.90;;;16.00;99.32;102071.78;4168675;28;20037;-67
2021/08/24 08:08:46;;;;;;;20.00;15.23;;;16.70;99.90;;;16.11;98.83;102070.66;4169412;28;20041;-67
2021/08/24 08:10:47;;;;;;;22.83;15.30;;;16.70;99.90;;;16.06;98.65;102073.81;4169485;28;20041;-67
2021/08/24 08:12:48;;;;;;;17.90;15.23;;;16.70;99.90;;;15.86;99.85;102064.38;4169557;28;20101;-67
2021/08/24 08:14:49;;;;;;;20.27;15.45;;;16.70;99.90;;;15.94;100.00;102069.75;4168523;28;20500;-67
2021/08/24 08:16:50;;;;;;;18.73;13.70;;;16.60;99.90;;;16.07;99.85;102059.47;4168482;28;20068;-67
2021/08/24 08:18:51;;;;;;;17.77;13.65;;;16.70;99.90;;;16.13;99.88;102063.34;4169411;28;20067;-67
2021/08/24 08:20:52;;;;;;;19.85;14.65;;;16.70;99.90;;;16.25;99.67;102059.38;4169301;28;20064;-67
2021/08/24 08:22:53;;;;;;;21.50;15.35;;;16.80;99.90;;;16.01;99.20;102065.44;4169349;28;20048;-67
2021/08/24 08:24:54;;;;;;;20.20;14.20;;;16.90;99.90;;;16.09;99.29;102062.00;4169198;28;20484;-67
2021/08/24 08:26:55;;;;;;;21.50;14.48;;;16.80;99.90;;;16.23;99.50;102064.03;4168455;28;20501;-66
2021/08/24 08:28:56;;;;;;;23.42;16.52;;;16.90;99.90;;;16.11;99.61;102054.66;4169287;28;20057;-67
2021/08/24 08:30:56;;;;;;;19.17;14.55;;;16.90;99.90;;;16.21;99.41;102053.56;4168881;28;20656;-67